createdAt,value
2023-01-25T00:02:24.290Z,10.60
2023-01-25T00:04:52.430Z,16.00
2023-01-25T00:07:22.883Z,10.40
2023-01-25T00:09:50.945Z,14.60
2023-01-25T00:12:22.325Z,15.00
2023-01-25T00:14:50.438Z,11.60
2023-01-25T00:17:19.925Z,9.00
2023-01-25T00:19:48.036Z,13.40
2023-01-25T00:22:17.959Z,7.60
2023-01-25T00:24:46.371Z,10.00
2023-01-25T00:27:14.393Z,11.80
2023-01-25T00:29:42.804Z,13.40
2023-01-25T00:32:42.471Z,19.40
2023-01-25T00:35:13.295Z,12.20
2023-01-25T00:37:43.655Z,9.00
2023-01-25T00:40:13.116Z,17.20
2023-01-25T00:42:41.808Z,9.80
2023-01-25T00:45:12.179Z,12.00
2023-01-25T00:47:42.054Z,10.60
2023-01-25T00:50:11.192Z,15.60
2023-01-25T00:52:39.229Z,5.80
2023-01-25T00:55:08.452Z,13.00
2023-01-25T00:57:36.901Z,3.00
2023-01-25T01:00:06.279Z,13.60
2023-01-25T01:02:34.415Z,18.00
2023-01-25T01:05:04.124Z,15.20
2023-01-25T01:07:32.879Z,15.60
2023-01-25T01:10:01.487Z,11.20
2023-01-25T01:12:29.650Z,13.60
2023-01-25T01:14:57.808Z,11.80
2023-01-25T01:17:26.108Z,3.20
2023-01-25T01:19:54.100Z,11.60
2023-01-25T01:22:23.626Z,7.00
2023-01-25T01:24:51.660Z,6.80
2023-01-25T01:27:20.154Z,12.80
2023-01-25T01:29:48.209Z,15.40
2023-01-25T01:32:16.555Z,10.40
2023-01-25T01:34:44.616Z,9.60
2023-01-25T01:37:12.860Z,15.20
2023-01-25T01:39:42.262Z,7.60
2023-01-25T01:42:10.332Z,5.60
2023-01-25T01:44:46.917Z,15.80
2023-01-25T01:47:16.873Z,8.20
2023-01-25T01:49:45.125Z,8.60
2023-01-25T01:52:14.125Z,12.20
2023-01-25T01:54:44.275Z,12.20
2023-01-25T01:57:14.462Z,8.40
2023-01-25T01:59:43.944Z,13.20
2023-01-25T02:02:12.116Z,7.80
2023-01-25T02:04:40.091Z,16.80
2023-01-25T02:07:11.281Z,13.80
2023-01-25T02:09:39.302Z,12.60
2023-01-25T02:12:08.925Z,14.40
2023-01-25T02:14:36.959Z,12.00
2023-01-25T02:17:05.129Z,15.40
2023-01-25T02:19:42.009Z,11.00
2023-01-25T02:22:11.095Z,10.00
2023-01-25T02:24:39.111Z,13.80
2023-01-25T02:27:08.586Z,12.00
2023-01-25T02:29:36.598Z,14.60
2023-01-25T02:32:05.212Z,16.80
2023-01-25T02:34:33.371Z,10.80
2023-01-25T02:37:01.617Z,11.60
2023-01-25T02:39:29.594Z,12.40
2023-01-25T02:41:57.671Z,12.20
2023-01-25T02:44:27.778Z,12.60
2023-01-25T02:46:55.781Z,9.00
2023-01-25T02:49:23.914Z,13.00
2023-01-25T02:51:55.891Z,10.80
2023-01-25T02:54:24.315Z,9.00
2023-01-25T02:56:53.579Z,12.00
2023-01-25T02:59:22.147Z,11.20
2023-01-25T03:01:51.735Z,8.80
2023-01-25T03:04:19.910Z,10.80
2023-01-25T03:06:48.142Z,10.00
2023-01-25T03:09:20.061Z,10.80
2023-01-25T03:11:48.172Z,12.20
2023-01-25T03:14:16.440Z,12.80
2023-01-25T03:16:44.410Z,8.60
2023-01-25T03:19:16.693Z,6.00
2023-01-25T03:21:44.686Z,4.80
2023-01-25T03:24:12.803Z,12.00
2023-01-25T03:26:54.641Z,12.20
2023-01-25T03:29:22.743Z,10.00
2023-01-25T03:31:51.141Z,6.40
2023-01-25T03:34:20.985Z,13.00
2023-01-25T03:36:49.344Z,7.40
2023-01-25T03:39:17.797Z,9.60
2023-01-25T03:41:45.827Z,12.40
2023-01-25T03:44:14.043Z,10.00
2023-01-25T03:46:42.438Z,9.20
2023-01-25T03:49:10.951Z,9.00
2023-01-25T03:51:40.336Z,11.20
2023-01-25T03:54:10.271Z,9.40
2023-01-25T03:56:38.512Z,6.00
2023-01-25T03:59:06.902Z,5.60
2023-01-25T04:01:34.998Z,11.00
2023-01-25T04:04:03.197Z,7.00
2023-01-25T04:06:31.279Z,9.80
2023-01-25T04:09:01.143Z,8.20
2023-01-25T04:11:29.145Z,12.20
2023-01-25T04:13:57.141Z,4.00
2023-01-25T04:16:25.197Z,8.60
2023-01-25T04:18:53.653Z,12.00
2023-01-25T04:21:21.656Z,6.80
2023-01-25T04:23:52.772Z,10.40
2023-01-25T04:26:22.126Z,8.20
2023-01-25T04:28:50.615Z,7.00
2023-01-25T04:31:18.811Z,12.00
2023-01-25T04:33:46.976Z,5.20
2023-01-25T04:36:15.423Z,9.80
2023-01-25T04:38:43.444Z,6.40
2023-01-25T04:41:11.540Z,7.00
2023-01-25T04:43:41.023Z,9.00
2023-01-25T04:46:10.270Z,7.60
2023-01-25T04:48:38.314Z,9.60
2023-01-25T04:51:06.560Z,12.80
2023-01-25T04:53:35.113Z,9.20
2023-01-25T04:56:03.325Z,8.60
2023-01-25T04:58:31.530Z,10.80
2023-01-25T05:01:03.243Z,11.00
2023-01-25T05:03:33.549Z,15.60
2023-01-25T05:06:01.898Z,12.40
2023-01-25T05:08:29.904Z,10.80
2023-01-25T05:10:58.007Z,9.60
2023-01-25T05:13:25.941Z,4.80
2023-01-25T05:15:53.959Z,8.60
2023-01-25T05:18:23.462Z,3.80
2023-01-25T05:20:55.745Z,8.80
2023-01-25T05:23:23.790Z,14.00
2023-01-25T05:26:23.656Z,7.80
2023-01-25T05:28:51.634Z,7.80
2023-01-25T05:31:19.740Z,9.40
2023-01-25T05:33:49.209Z,7.80
2023-01-25T05:36:17.272Z,7.60
2023-01-25T05:38:45.269Z,4.00
2023-01-25T05:41:13.252Z,12.40
2023-01-25T05:43:41.184Z,3.80
2023-01-25T05:46:09.735Z,7.40
2023-01-25T05:48:37.952Z,11.20
2023-01-25T05:51:07.648Z,9.00
2023-01-25T05:53:35.759Z,4.00
2023-01-25T05:56:07.096Z,7.00
2023-01-25T05:58:35.199Z,11.60
2023-01-25T06:01:03.253Z,8.20
2023-01-25T06:03:31.928Z,6.40
2023-01-25T06:06:03.036Z,7.00
2023-01-25T06:08:32.585Z,8.00
2023-01-25T06:11:01.064Z,11.20
2023-01-25T06:13:30.069Z,6.00
2023-01-25T06:15:58.245Z,11.40
2023-01-25T06:18:26.353Z,9.80
2023-01-25T06:20:57.724Z,6.20
2023-01-25T06:23:26.497Z,8.20
2023-01-25T06:26:00.822Z,14.00
2023-01-25T06:28:34.285Z,9.00
2023-01-25T06:31:07.309Z,7.40
2023-01-25T06:33:36.796Z,1.00
2023-01-25T06:36:05.681Z,7.00
2023-01-25T06:38:33.711Z,9.60
2023-01-25T06:41:03.943Z,8.60
2023-01-25T06:43:33.963Z,13.60
2023-01-25T06:46:03.362Z,12.20
2023-01-25T06:48:32.886Z,8.20
2023-01-25T06:51:02.039Z,9.80
2023-01-25T06:53:30.931Z,15.80
2023-01-25T06:56:00.894Z,10.40
2023-01-25T06:58:30.814Z,3.80
2023-01-25T07:01:01.596Z,9.40
2023-01-25T07:03:30.019Z,7.60
2023-01-25T07:06:01.584Z,7.80
2023-01-25T07:08:29.652Z,8.60
2023-01-25T07:10:57.964Z,9.40
2023-01-25T07:13:26.510Z,12.80
2023-01-25T07:15:56.854Z,11.60
2023-01-25T07:18:24.932Z,9.80
2023-01-25T07:20:53.573Z,6.80
2023-01-25T07:23:21.603Z,9.00
2023-01-25T07:25:51.755Z,5.20
2023-01-25T07:28:19.767Z,4.40
2023-01-25T07:30:49.282Z,9.00
2023-01-25T07:33:18.812Z,9.80
2023-01-25T07:35:46.813Z,6.80
2023-01-25T07:38:15.409Z,8.00
2023-01-25T07:40:43.438Z,7.00
2023-01-25T07:43:11.432Z,6.20
2023-01-25T07:45:39.945Z,9.40
2023-01-25T07:48:13.050Z,12.40
2023-01-25T07:50:46.528Z,9.00
2023-01-25T07:53:14.568Z,12.20
2023-01-25T07:55:42.547Z,3.60
2023-01-25T07:58:12.182Z,4.00
2023-01-25T08:00:40.462Z,6.00
2023-01-25T08:03:10.279Z,5.60
2023-01-25T08:05:39.553Z,8.80
2023-01-25T08:08:09.702Z,6.20
2023-01-25T08:10:37.835Z,6.60
2023-01-25T08:13:07.197Z,4.00
2023-01-25T08:15:39.533Z,13.40
2023-01-25T08:18:07.645Z,5.00
2023-01-25T08:20:35.695Z,6.60
2023-01-25T08:23:04.539Z,6.80
2023-01-25T08:25:40.734Z,6.00
2023-01-25T08:28:11.571Z,7.00
2023-01-25T08:30:48.672Z,6.00
2023-01-25T08:33:23.752Z,7.20
2023-01-25T08:35:56.765Z,10.60
2023-01-25T08:38:25.349Z,6.20
2023-01-25T08:40:54.748Z,3.60
2023-01-25T08:43:22.859Z,12.00
2023-01-25T08:45:58.648Z,10.40
2023-01-25T08:48:26.616Z,2.80
2023-01-25T08:50:54.678Z,5.80
2023-01-25T08:53:23.038Z,5.20
2023-01-25T08:55:51.230Z,8.00
2023-01-25T08:58:22.695Z,6.00
2023-01-25T09:00:51.487Z,4.00
2023-01-25T09:03:30.108Z,6.20
2023-01-25T09:05:59.216Z,6.40
2023-01-25T09:08:28.647Z,2.20
2023-01-25T09:11:03.532Z,4.80
2023-01-25T09:13:34.509Z,4.00
2023-01-25T09:16:06.934Z,4.00
2023-01-25T09:18:35.665Z,8.60
2023-01-25T09:21:07.478Z,6.80
2023-01-25T09:23:44.420Z,3.40
2023-01-25T09:26:19.961Z,5.60
2023-01-25T09:28:51.525Z,9.60
2023-01-25T09:31:22.609Z,6.60
2023-01-25T09:33:51.354Z,6.40
2023-01-25T09:36:19.483Z,5.20
2023-01-25T09:38:47.693Z,9.00
2023-01-25T09:41:42.648Z,14.20
2023-01-25T09:44:25.493Z,4.00
2023-01-25T09:46:54.498Z,7.80
2023-01-25T09:49:35.149Z,10.40
2023-01-25T09:52:21.503Z,6.00
2023-01-25T09:54:50.456Z,5.00
2023-01-25T09:57:21.315Z,7.00
2023-01-25T09:59:52.101Z,0.40
2023-01-25T10:02:37.181Z,6.60
2023-01-25T10:05:08.801Z,6.00
2023-01-25T10:07:52.173Z,10.80
2023-01-25T10:10:21.285Z,3.80
2023-01-25T10:12:49.454Z,3.00
2023-01-25T10:15:24.242Z,5.60
2023-01-25T10:17:58.375Z,5.60
2023-01-25T10:20:30.530Z,3.80
2023-01-25T10:23:07.183Z,10.60
2023-01-25T10:25:37.191Z,4.80
2023-01-25T10:28:15.869Z,6.40
2023-01-25T10:30:49.195Z,4.00
2023-01-25T10:33:18.787Z,9.20
2023-01-25T10:35:48.619Z,5.20
2023-01-25T10:38:19.702Z,3.60
2023-01-25T10:40:50.265Z,4.40
2023-01-25T10:43:19.504Z,7.40
2023-01-25T10:45:50.493Z,8.60
2023-01-25T10:48:20.991Z,5.80
2023-01-25T10:50:50.982Z,7.40
2023-01-25T10:53:29.820Z,3.00
2023-01-25T10:56:03.744Z,3.60
2023-01-25T10:58:38.134Z,3.80
2023-01-25T11:01:08.699Z,4.00
2023-01-25T11:03:38.781Z,0.40
2023-01-25T11:06:07.641Z,4.00
2023-01-25T11:08:37.159Z,8.40
2023-01-25T11:11:26.707Z,5.60
2023-01-25T11:13:56.247Z,6.00
2023-01-25T11:16:36.596Z,5.20
2023-01-25T11:19:04.685Z,3.80
2023-01-25T11:21:33.300Z,7.00
2023-01-25T11:24:03.627Z,6.40
2023-01-25T11:26:31.856Z,9.20
2023-01-25T11:29:13.941Z,9.40
2023-01-25T11:31:46.399Z,10.00
2023-01-25T11:34:15.521Z,3.00
2023-01-25T11:36:58.379Z,5.20
2023-01-25T11:39:37.922Z,6.00
2023-01-25T11:42:13.833Z,6.40
2023-01-25T11:44:58.871Z,7.00
2023-01-25T11:47:37.118Z,7.80
2023-01-25T11:50:09.395Z,7.00
2023-01-25T11:52:55.290Z,7.80
2023-01-25T11:55:26.449Z,3.60
2023-01-25T11:58:05.465Z,7.80
2023-01-25T12:00:41.987Z,6.20
2023-01-25T12:03:46.985Z,6.60
2023-01-25T12:06:17.137Z,11.60
2023-01-25T12:09:03.483Z,8.60
2023-01-25T12:11:47.254Z,7.80
2023-01-25T12:14:20.705Z,6.80
2023-01-25T12:16:58.519Z,12.00
2023-01-25T12:19:52.431Z,5.40
2023-01-25T12:22:40.316Z,9.20
2023-01-25T12:25:20.903Z,10.40
2023-01-25T12:27:56.706Z,10.40
2023-01-25T12:30:29.443Z,7.80
2023-01-25T12:33:08.894Z,7.00
2023-01-25T12:35:44.536Z,7.00
2023-01-25T12:38:15.185Z,9.20
2023-01-25T12:40:48.298Z,17.60
2023-01-25T12:43:18.180Z,7.80
2023-01-25T12:45:46.517Z,7.80
2023-01-25T12:48:18.284Z,6.60
2023-01-25T12:50:48.531Z,4.00
2023-01-25T12:53:20.867Z,9.80
2023-01-25T12:55:49.350Z,6.60
2023-01-25T12:58:26.360Z,8.20
2023-01-25T13:01:01.412Z,7.20
2023-01-25T13:03:32.025Z,6.40
2023-01-25T13:06:08.969Z,7.80
2023-01-25T13:08:43.860Z,6.80
2023-01-25T13:11:15.323Z,5.80
2023-01-25T13:13:43.578Z,11.20
2023-01-25T13:16:35.778Z,6.40
2023-01-25T13:19:04.139Z,4.80
2023-01-25T13:21:45.104Z,7.20
2023-01-25T13:24:25.081Z,9.20
2023-01-25T13:27:04.400Z,4.40
2023-01-25T13:30:00.517Z,5.60
2023-01-25T13:33:00.168Z,3.80
2023-01-25T13:35:33.843Z,4.00
2023-01-25T13:38:21.079Z,8.60
2023-01-25T13:41:03.668Z,6.20
2023-01-25T13:43:32.335Z,6.20
2023-01-25T13:46:00.820Z,5.20
2023-01-25T13:48:28.961Z,9.60
2023-01-25T13:50:59.361Z,8.20
2023-01-25T13:53:29.548Z,8.40
2023-01-25T13:56:00.804Z,4.80
2023-01-25T13:58:30.571Z,6.80
2023-01-25T14:00:59.359Z,6.80
2023-01-25T14:03:29.183Z,7.80
2023-01-25T14:06:00.228Z,8.20
2023-01-25T14:08:28.913Z,7.40
2023-01-25T14:10:57.070Z,6.40
2023-01-25T14:13:26.764Z,6.40
2023-01-25T14:15:56.760Z,3.00
2023-01-25T14:18:31.394Z,5.60
2023-01-25T14:21:13.761Z,5.20
2023-01-25T14:23:41.823Z,6.60
2023-01-25T14:26:19.060Z,4.20
2023-01-25T14:28:59.415Z,3.60
2023-01-25T14:31:34.931Z,8.60
2023-01-25T14:34:05.221Z,9.40
2023-01-25T14:36:34.981Z,7.40
2023-01-25T14:39:04.829Z,3.60
2023-01-25T14:41:34.034Z,4.00
2023-01-25T14:44:05.211Z,9.00
2023-01-25T14:46:34.001Z,6.20
2023-01-25T14:49:25.399Z,5.60
2023-01-25T14:51:57.571Z,9.60
2023-01-25T14:54:27.698Z,8.40
2023-01-25T14:56:56.985Z,5.20
2023-01-25T14:59:32.561Z,6.60
2023-01-25T15:02:02.502Z,11.20
2023-01-25T15:04:30.778Z,4.40
2023-01-25T15:07:01.195Z,6.60
2023-01-25T15:09:39.975Z,6.80
2023-01-25T15:12:29.328Z,9.40
2023-01-25T15:14:59.392Z,4.20
2023-01-25T15:17:44.305Z,4.40
2023-01-25T15:20:38.891Z,9.40
2023-01-25T15:23:24.716Z,7.40
2023-01-25T15:25:53.522Z,8.60
2023-01-25T15:28:21.634Z,5.20
2023-01-25T15:30:51.676Z,7.80
2023-01-25T15:33:21.440Z,4.00
2023-01-25T15:35:50.634Z,6.40
2023-01-25T15:38:19.033Z,6.60
2023-01-25T15:40:49.995Z,4.00
2023-01-25T15:43:18.745Z,4.00
2023-01-25T15:45:48.144Z,4.40
2023-01-25T15:48:18.663Z,5.80
2023-01-25T15:50:51.752Z,6.00
2023-01-25T15:53:20.786Z,6.20
2023-01-25T15:55:49.886Z,6.20
2023-01-25T15:58:23.885Z,4.00
2023-01-25T16:00:52.053Z,6.20
2023-01-25T16:03:21.580Z,11.20
2023-01-25T16:05:51.692Z,7.80
2023-01-25T16:08:21.443Z,8.00
2023-01-25T16:10:49.894Z,8.60
2023-01-25T16:13:18.038Z,9.00
2023-01-25T16:15:46.374Z,4.40
2023-01-25T16:18:14.495Z,6.00
2023-01-25T16:20:44.525Z,5.80
2023-01-25T16:23:13.154Z,9.00
2023-01-25T16:25:41.438Z,10.80
2023-01-25T16:28:11.736Z,5.20
2023-01-25T16:30:41.379Z,13.40
2023-01-25T16:33:09.765Z,11.60
2023-01-25T16:35:38.046Z,8.20
2023-01-25T16:38:08.354Z,11.60
2023-01-25T16:40:39.750Z,4.40
2023-01-25T16:43:08.113Z,8.40
2023-01-25T16:45:36.594Z,11.00
2023-01-25T16:48:06.375Z,6.80
2023-01-25T16:50:35.992Z,12.80
2023-01-25T16:53:06.204Z,10.00
2023-01-25T16:55:35.765Z,11.60
2023-01-25T16:58:03.865Z,11.00
2023-01-25T17:00:31.925Z,3.80
2023-01-25T17:03:00.022Z,8.20
2023-01-25T17:05:33.045Z,16.00
2023-01-25T17:08:01.467Z,8.25
2023-01-25T17:10:33.153Z,3.25
2023-01-25T17:13:03.252Z,3.20
2023-01-25T17:15:31.493Z,15.25
2023-01-25T17:17:59.579Z,14.00
2023-01-25T17:20:28.525Z,5.80
2023-01-25T17:22:56.451Z,14.00
2023-01-25T17:25:30.533Z,16.00
2023-01-25T17:27:58.537Z,19.50
2023-01-25T17:30:28.022Z,15.00
2023-01-25T17:32:56.065Z,16.25
2023-01-25T17:35:24.128Z,11.75
2023-01-25T17:37:55.021Z,15.50
2023-01-25T17:40:23.084Z,15.50
2023-01-25T17:42:52.809Z,19.75
2023-01-25T17:45:21.698Z,15.50
2023-01-25T17:47:51.149Z,11.25
2023-01-25T17:50:20.134Z,18.00
2023-01-25T17:52:51.690Z,21.25
2023-01-25T17:55:19.819Z,21.50
2023-01-25T17:57:51.268Z,28.50
2023-01-25T18:00:20.350Z,17.25
2023-01-25T18:02:48.327Z,23.00
2023-01-25T18:05:18.466Z,9.20
2023-01-25T18:07:47.879Z,19.80
2023-01-25T18:10:18.066Z,22.80
2023-01-25T18:13:03.579Z,10.25
2023-01-25T18:15:33.124Z,15.50
2023-01-25T18:18:01.855Z,13.00
2023-01-25T18:20:31.949Z,15.00
2023-01-25T18:22:59.940Z,18.00
2023-01-25T18:25:32.763Z,27.50
2023-01-25T18:28:00.821Z,18.50
2023-01-25T18:30:32.307Z,23.25
2023-01-25T18:33:01.549Z,21.75
2023-01-25T18:35:31.974Z,21.50
2023-01-25T18:38:00.143Z,19.25
2023-01-25T18:40:29.929Z,22.75
2023-01-25T18:42:59.408Z,26.00
2023-01-25T18:45:27.443Z,18.00
2023-01-25T18:47:55.495Z,23.75
2023-01-25T18:50:23.846Z,28.00
2023-01-25T18:52:54.404Z,16.50
2023-01-25T18:55:22.566Z,22.50
2023-01-25T18:57:50.615Z,12.50
2023-01-25T19:00:19.371Z,21.50
2023-01-25T19:02:47.468Z,16.75
2023-01-25T19:05:18.641Z,19.00
2023-01-25T19:07:46.722Z,25.50
2023-01-25T19:10:16.341Z,31.75
2023-01-25T19:12:44.329Z,22.75
2023-01-25T19:15:13.118Z,19.00
2023-01-25T19:17:41.142Z,16.25
2023-01-25T19:20:10.711Z,11.00
2023-01-25T19:22:40.548Z,30.25
2023-01-25T19:25:10.056Z,21.25
2023-01-25T19:27:39.626Z,24.50
2023-01-25T19:30:08.990Z,25.25
2023-01-25T19:32:37.223Z,26.50
2023-01-25T19:35:08.309Z,20.25
2023-01-25T19:37:36.717Z,23.50
2023-01-25T19:40:08.413Z,22.25
2023-01-25T19:42:36.630Z,30.50
2023-01-25T19:45:14.801Z,23.75
2023-01-25T19:47:46.189Z,21.75
2023-01-25T19:50:14.641Z,15.00
2023-01-25T19:52:43.251Z,22.75
2023-01-25T19:55:11.560Z,25.25
2023-01-25T19:57:39.830Z,19.25
2023-01-25T20:00:11.620Z,19.50
2023-01-25T20:02:39.679Z,21.75
2023-01-25T20:05:08.636Z,22.50
2023-01-25T20:07:36.937Z,23.25
2023-01-25T20:10:06.083Z,18.75
2023-01-25T20:12:34.643Z,22.50
2023-01-25T20:15:02.682Z,21.25
2023-01-25T20:17:32.461Z,21.25
2023-01-25T20:20:00.523Z,18.50
2023-01-25T20:22:28.639Z,23.00
2023-01-25T20:24:57.067Z,16.75
2023-01-25T20:27:25.196Z,20.00
2023-01-25T20:29:53.884Z,24.25
2023-01-25T20:32:32.495Z,21.20
2023-01-25T20:35:06.079Z,11.40
2023-01-25T20:37:34.255Z,18.00
2023-01-25T20:40:02.325Z,12.25
2023-01-25T20:42:30.362Z,16.00
2023-01-25T20:44:59.455Z,20.00
2023-01-25T20:47:27.446Z,15.75
2023-01-25T20:49:55.593Z,21.75
2023-01-25T20:52:25.004Z,12.25
2023-01-25T20:54:54.055Z,17.20
2023-01-25T20:57:22.091Z,16.25
2023-01-25T20:59:50.103Z,7.00
2023-01-25T21:02:18.335Z,16.00
2023-01-25T21:04:46.679Z,24.25
2023-01-25T21:07:14.709Z,24.25
2023-01-25T21:09:45.408Z,18.80
2023-01-25T21:12:13.882Z,17.00
2023-01-25T21:14:44.713Z,22.00
2023-01-25T21:17:14.313Z,18.00
2023-01-25T21:19:42.462Z,18.60
2023-01-25T21:22:10.505Z,15.60
2023-01-25T21:24:39.812Z,17.50
2023-01-25T21:27:10.449Z,9.00
2023-01-25T21:29:38.603Z,14.40
2023-01-25T21:32:06.799Z,12.60
2023-01-25T21:34:34.835Z,15.00
2023-01-25T21:37:03.024Z,19.80
2023-01-25T21:39:31.556Z,19.75
2023-01-25T21:41:59.566Z,6.50
2023-01-25T21:44:47.630Z,10.20
2023-01-25T21:47:29.382Z,17.50
2023-01-25T21:50:16.003Z,10.40
2023-01-25T21:52:44.018Z,10.80
2023-01-25T21:55:12.561Z,11.40
2023-01-25T21:57:49.369Z,14.20
2023-01-25T22:00:20.680Z,10.20
2023-01-25T22:02:54.676Z,9.20
2023-01-25T22:05:22.649Z,12.80
2023-01-25T22:07:50.892Z,12.40
2023-01-25T22:10:19.274Z,17.60
2023-01-25T22:12:50.622Z,15.20
2023-01-25T22:15:20.138Z,15.00
2023-01-25T22:17:48.131Z,13.40
2023-01-25T22:20:16.762Z,18.60
2023-01-25T22:22:44.829Z,8.40
2023-01-25T22:25:12.923Z,19.60
2023-01-25T22:27:47.326Z,17.60
2023-01-25T22:30:17.511Z,16.60
2023-01-25T22:32:46.934Z,7.00
2023-01-25T22:35:15.072Z,13.50
2023-01-25T22:37:43.458Z,19.00
2023-01-25T22:40:13.037Z,16.50
2023-01-25T22:42:41.199Z,16.00
2023-01-25T22:45:10.401Z,10.00
2023-01-25T22:47:38.352Z,8.40
2023-01-25T22:50:08.959Z,15.25
2023-01-25T22:52:37.299Z,10.80
2023-01-25T22:55:06.322Z,18.80
2023-01-25T22:57:34.729Z,5.60
2023-01-25T23:00:03.144Z,9.80
2023-01-25T23:02:31.151Z,6.60
2023-01-25T23:04:59.714Z,9.80
2023-01-25T23:07:29.207Z,11.40
2023-01-25T23:09:57.235Z,15.20
2023-01-25T23:12:25.313Z,9.80
2023-01-25T23:14:54.122Z,12.00
2023-01-25T23:17:40.292Z,16.50
2023-01-25T23:20:09.636Z,8.25
2023-01-25T23:22:39.231Z,9.75
2023-01-25T23:25:08.970Z,11.25
2023-01-25T23:27:36.997Z,11.50
2023-01-25T23:30:07.360Z,12.75
2023-01-25T23:32:35.407Z,12.75
2023-01-25T23:35:03.496Z,10.40
2023-01-25T23:37:32.843Z,15.75
2023-01-25T23:40:02.342Z,8.00
2023-01-25T23:42:30.852Z,11.00
2023-01-25T23:44:58.900Z,10.25
2023-01-25T23:47:27.393Z,12.25
2023-01-25T23:49:56.470Z,12.00
2023-01-25T23:52:24.527Z,12.50
2023-01-25T23:54:52.628Z,11.20
2023-01-25T23:57:22.039Z,14.50
2023-01-25T23:59:50.510Z,9.75
